Time;durP1;ratioP1;P1;durP2;ratioP2;P2;SDS_P1;SDS_P2;PMS_P1;PMS_P2;Temp;Humidity;BMP_temperature;BMP_pressure;BME280_temperature;BME280_humidity;BME280_pressure;Samples;Min_cycle;Max_cycle;Signal;HPM_P1;HPM_P2
2022/08/06 00:00:34;;;;;;;2.25;0.90;;;16.70;99.90;;;;;;2073177;28;20037;-71
2022/08/06 00:01:35;;;;;;;4.25;1.55;;;16.70;99.90;;;;;;2076474;28;20545;-71
2022/08/06 00:02:35;;;;;;;2.25;1.38;;;16.70;99.90;;;;;;2076313;28;20025;-71
2022/08/06 00:03:36;;;;;;;1.55;0.98;;;16.70;99.90;;;;;;2076545;28;20101;-71
2022/08/06 00:04:36;;;;;;;2.97;1.17;;;16.60;99.90;;;;;;2075009;28;20167;-71
2022/08/06 00:05:37;;;;;;;2.58;1.20;;;16.60;99.90;;;;;;2073523;28;20794;-71
2022/08/06 00:06:38;;;;;;;2.33;1.10;;;16.60;99.90;;;;;;2074409;28;20014;-71
2022/08/06 00:07:38;;;;;;;3.22;1.20;;;16.60;99.90;;;;;;2075545;28;20085;-71
2022/08/06 00:08:39;;;;;;;2.40;1.05;;;16.60;99.90;;;;;;2075636;28;20022;-71
2022/08/06 00:09:39;;;;;;;3.83;1.10;;;16.60;99.90;;;;;;2076323;28;20058;-71
2022/08/06 00:10:40;;;;;;;2.17;1.23;;;16.50;99.90;;;;;;2075047;28;20092;-71
2022/08/06 00:11:41;;;;;;;1.40;1.00;;;16.50;99.90;;;;;;2076268;28;20022;-71
2022/08/06 00:12:41;;;;;;;2.30;0.95;;;16.50;99.90;;;;;;2074590;28;20101;-71
2022/08/06 00:13:42;;;;;;;1.10;1.00;;;16.50;99.90;;;;;;2073599;28;20022;-71
2022/08/06 00:14:43;;;;;;;1.85;1.20;;;16.50;99.90;;;;;;2076285;28;20024;-71
2022/08/06 00:15:43;;;;;;;3.75;1.25;;;16.50;99.90;;;;;;2075284;28;20201;-72
2022/08/06 00:16:44;;;;;;;1.77;1.00;;;16.50;99.90;;;;;;2074109;28;20021;-71
2022/08/06 00:17:46;;;;;;;2.22;1.13;;;16.40;99.90;;;;;;2075214;28;20022;-71
2022/08/06 00:18:46;;;;;;;1.98;0.95;;;16.40;99.90;;;;;;2076236;28;20014;-71
2022/08/06 00:19:47;;;;;;;2.40;1.00;;;16.40;99.90;;;;;;2077020;28;20075;-71
2022/08/06 00:20:47;;;;;;;2.78;1.20;;;16.40;99.90;;;;;;2075846;28;20083;-71
2022/08/06 00:21:48;;;;;;;3.90;1.25;;;16.40;99.90;;;;;;2074219;28;20109;-71
2022/08/06 00:22:48;;;;;;;2.90;1.15;;;16.40;99.90;;;;;;2073109;28;20014;-71
2022/08/06 00:23:49;;;;;;;3.38;1.30;;;16.40;99.90;;;;;;2075522;28;20406;-71
2022/08/06 00:24:50;;;;;;;1.33;1.17;;;16.30;99.90;;;;;;2074512;28;20117;-71
2022/08/06 00:25:51;;;;;;;3.42;1.00;;;16.30;99.90;;;;;;2073691;28;20030;-71
2022/08/06 00:26:52;;;;;;;2.25;1.10;;;16.30;99.90;;;;;;2073383;28;20048;-71
2022/08/06 00:27:52;;;;;;;2.92;1.50;;;16.30;99.90;;;;;;2078823;28;20028;-71
2022/08/06 00:28:53;;;;;;;2.53;1.00;;;16.30;99.90;;;;;;2076021;28;20393;-71
2022/08/06 00:29:53;;;;;;;4.57;1.38;;;16.20;99.90;;;;;;2074871;28;20030;-71
2022/08/06 00:30:54;;;;;;;3.13;1.20;;;16.20;99.90;;;;;;2073371;28;20136;-71
2022/08/06 00:31:55;;;;;;;2.42;1.17;;;16.20;99.90;;;;;;2072888;28;20088;-71
2022/08/06 00:32:57;;;;;;;2.95;1.13;;;16.20;99.90;;;;;;2076379;28;20026;-71
2022/08/06 00:34:00;;;;;;;1.23;0.90;;;16.20;99.90;;;;;;2076434;28;20026;-71
2022/08/06 00:35:01;;;;;;;2.55;1.20;;;16.20;99.90;;;;;;2074439;28;20151;-71
2022/08/06 00:36:03;;;;;;;1.77;1.20;;;16.10;99.90;;;;;;2073709;28;20079;-71
2022/08/06 00:37:04;;;;;;;3.72;1.33;;;16.10;99.90;;;;;;2072873;28;20021;-71
2022/08/06 00:38:04;;;;;;;1.45;0.90;;;16.10;99.90;;;;;;2075547;28;20207;-71
2022/08/06 00:39:06;;;;;;;2.70;1.50;;;16.00;99.90;;;;;;2075272;28;20030;-71
2022/08/06 00:40:07;;;;;;;3.05;0.88;;;16.00;99.90;;;;;;2074350;28;20021;-71
2022/08/06 00:41:08;;;;;;;2.53;1.05;;;16.00;99.90;;;;;;2073161;28;20033;-70
2022/08/06 00:42:09;;;;;;;2.55;1.30;;;16.00;99.90;;;;;;2072582;28;20025;-70
2022/08/06 00:43:09;;;;;;;2.28;1.08;;;16.00;99.90;;;;;;2075035;28;20030;-70
2022/08/06 00:44:10;;;;;;;2.67;1.35;;;16.00;99.90;;;;;;2074367;28;20045;-70
2022/08/06 00:45:10;;;;;;;3.08;1.30;;;16.00;99.90;;;;;;2064546;28;20027;-70
2022/08/06 00:46:11;;;;;;;1.48;1.20;;;16.00;99.90;;;;;;2072274;28;20536;-71
2022/08/06 00:47:12;;;;;;;3.28;1.17;;;15.90;99.90;;;;;;2073681;28;20022;-70
2022/08/06 00:48:13;;;;;;;2.00;1.00;;;15.90;99.90;;;;;;2074267;28;20027;-70
2022/08/06 00:49:14;;;;;;;2.88;1.20;;;15.90;99.90;;;;;;2074350;28;20026;-70
2022/08/06 00:50:14;;;;;;;3.88;1.13;;;15.90;99.90;;;;;;2073017;28;20485;-70
2022/08/06 00:51:15;;;;;;;4.03;1.35;;;15.90;99.90;;;;;;2076212;28;20108;-70
2022/08/06 00:52:15;;;;;;;4.55;1.30;;;15.80;99.90;;;;;;2074385;28;20531;-70
2022/08/06 00:53:16;;;;;;;1.25;1.00;;;15.80;99.90;;;;;;2073187;28;21071;-70
2022/08/06 00:54:17;;;;;;;3.72;1.20;;;15.80;99.90;;;;;;2073205;28;20026;-70
2022/08/06 00:55:17;;;;;;;2.15;1.10;;;15.70;99.90;;;;;;2074655;28;20017;-70
2022/08/06 00:56:18;;;;;;;2.13;1.30;;;15.70;99.90;;;;;;2074673;28;20017;-71
2022/08/06 00:57:19;;;;;;;3.67;1.35;;;15.70;99.90;;;;;;2077028;28;20363;-71
2022/08/06 00:58:20;;;;;;;3.40;1.30;;;15.70;99.90;;;;;;2072216;28;20049;-70
2022/08/06 00:59:20;;;;;;;5.15;1.30;;;15.70;99.90;;;;;;2073292;28;20026;-70
2022/08/06 01:00:21;;;;;;;3.55;1.25;;;15.60;99.90;;;;;;2072597;28;20538;-70
2022/08/06 01:01:21;;;;;;;1.73;1.20;;;15.70;99.90;;;;;;2072355;28;20113;-70
2022/08/06 01:02:22;;;;;;;2.70;1.13;;;15.60;99.90;;;;;;2072462;28;20070;-70
2022/08/06 01:03:23;;;;;;;2.35;1.23;;;15.60;99.90;;;;;;2074034;28;20452;-70
2022/08/06 01:04:23;;;;;;;2.13;1.10;;;15.60;99.90;;;;;;2061501;28;20053;-71
2022/08/06 01:05:24;;;;;;;2.47;1.13;;;15.60;99.90;;;;;;2072212;28;20113;-71
2022/08/06 01:06:24;;;;;;;2.40;1.20;;;15.60;99.90;;;;;;2074259;28;20091;-71
2022/08/06 01:07:25;;;;;;;3.95;1.30;;;15.50;99.90;;;;;;2072888;28;20105;-71
2022/08/06 01:08:26;;;;;;;3.10;1.20;;;15.50;99.90;;;;;;2073436;28;20091;-71
2022/08/06 01:09:26;;;;;;;3.38;1.33;;;15.50;99.90;;;;;;2073927;28;20033;-71
2022/08/06 01:10:27;;;;;;;2.08;1.33;;;15.50;99.90;;;;;;2072688;28;20025;-71
2022/08/06 01:11:31;;;;;;;4.18;1.20;;;15.50;99.90;;;;;;2074242;28;20025;-71
2022/08/06 01:12:32;;;;;;;3.70;1.33;;;15.50;99.90;;;;;;2073622;28;20021;-71
2022/08/06 01:13:32;;;;;;;3.08;1.70;;;15.40;99.90;;;;;;2074666;28;20049;-71
2022/08/06 01:14:33;;;;;;;2.40;1.40;;;15.50;99.90;;;;;;2075540;28;20393;-71
2022/08/06 01:15:34;;;;;;;2.45;1.40;;;15.50;99.90;;;;;;2073569;28;20033;-71
2022/08/06 01:16:47;;;;;;;1.75;1.10;;;15.40;99.90;;;;;;2071610;28;20022;-71
2022/08/06 01:18:00;;;;;;;2.53;1.27;;;15.40;99.90;;;;;;2073001;28;20017;-71
2022/08/06 01:19:29;;;;;;;1.83;1.30;;;15.40;99.90;;;;;;2073244;28;20052;-71
2022/08/06 01:21:08;;;;;;;3.47;1.67;;;15.30;99.90;;;;;;2072411;28;20025;-71
2022/08/06 01:22:40;;;;;;;1.33;1.17;;;15.30;99.90;;;;;;2047031;28;20086;-71
2022/08/06 01:23:59;;;;;;;2.95;1.20;;;15.20;99.90;;;;;;2038075;28;20032;-71
2022/08/06 01:25:18;;;;;;;3.67;1.33;;;15.20;99.90;;;;;;2069547;28;20036;-71
2022/08/06 01:26:22;;;;;;;2.97;1.30;;;15.20;99.90;;;;;;2071324;28;20050;-71
2022/08/06 01:27:42;;;;;;;1.90;1.10;;;15.10;99.90;;;;;;2073440;28;20384;-71
2022/08/06 01:28:49;;;;;;;2.33;1.10;;;15.20;99.90;;;;;;2073775;28;20074;-71
2022/08/06 01:29:54;;;;;;;3.88;1.50;;;15.10;99.90;;;;;;2075291;28;20646;-71
2022/08/06 01:31:06;;;;;;;1.83;1.40;;;15.10;99.90;;;;;;2075488;28;20030;-72
2022/08/06 01:32:11;;;;;;;2.97;1.33;;;15.10;99.90;;;;;;2072241;28;20466;-71
2022/08/06 01:33:23;;;;;;;1.98;1.15;;;15.10;99.90;;;;;;2074110;28;20128;-71
2022/08/06 01:34:30;;;;;;;2.20;1.55;;;15.10;99.90;;;;;;2073461;28;20097;-71
2022/08/06 01:35:35;;;;;;;2.45;1.33;;;15.10;99.90;;;;;;2074263;28;20018;-71
2022/08/06 01:36:51;;;;;;;2.85;1.55;;;15.10;99.90;;;;;;2071974;28;20086;-71
2022/08/06 01:38:12;;;;;;;2.60;1.50;;;15.00;99.90;;;;;;2075513;28;20037;-71
2022/08/06 01:39:13;;;;;;;;;;;15.00;99.90;;;;;;2073406;28;20026;-71
2022/08/06 01:40:19;;;;;;;3.78;1.20;;;14.90;99.90;;;;;;2075023;28;19905;-71
2022/08/06 01:41:38;;;;;;;2.63;1.70;;;14.90;99.90;;;;;;2074653;28;20028;-71
2022/08/06 01:42:42;;;;;;;2.50;1.30;;;14.90;99.90;;;;;;2071658;28;20493;-71
2022/08/06 01:43:43;;;;;;;2.63;1.10;;;14.90;99.90;;;;;;2073088;28;20018;-71
2022/08/06 01:44:48;;;;;;;4.97;1.50;;;14.90;99.90;;;;;;2073407;28;20047;-71
2022/08/06 01:45:51;;;;;;;4.22;2.00;;;14.90;99.90;;;;;;2076433;28;20483;-71
2022/08/06 01:46:56;;;;;;;2.80;1.40;;;14.90;99.90;;;;;;2075171;28;20433;-71
2022/08/06 01:48:01;;;;;;;2.72;1.45;;;14.90;99.90;;;;;;2072202;28;20037;-71
2022/08/06 01:49:03;;;;;;;4.63;1.23;;;14.90;99.90;;;;;;2073261;28;20018;-71
2022/08/06 01:50:06;;;;;;;3.42;1.30;;;14.90;99.90;;;;;;2073002;28;20022;-70
2022/08/06 01:51:07;;;;;;;1.55;1.30;;;14.80;99.90;;;;;;2072075;28;20018;-70
2022/08/06 01:52:11;;;;;;;2.65;1.52;;;14.80;99.90;;;;;;2073890;28;20017;-71
2022/08/06 01:53:15;;;;;;;3.60;1.10;;;14.80;99.90;;;;;;2073568;28;20072;-71
2022/08/06 01:54:17;;;;;;;3.53;1.50;;;14.80;99.90;;;;;;2071995;28;20025;-71
2022/08/06 01:55:19;;;;;;;2.00;1.25;;;14.80;99.90;;;;;;2075952;28;20025;-71
2022/08/06 01:56:22;;;;;;;1.90;1.40;;;14.80;99.90;;;;;;2075616;28;20018;-71
2022/08/06 01:57:24;;;;;;;4.22;1.50;;;14.70;99.90;;;;;;2073007;28;20087;-71
2022/08/06 01:58:36;;;;;;;3.08;1.45;;;14.70;99.90;;;;;;2073929;28;20022;-71
2022/08/06 01:59:43;;;;;;;2.30;0.95;;;14.70;99.90;;;;;;2070904;28;20429;-71
2022/08/06 02:00:47;;;;;;;1.50;1.40;;;14.70;99.90;;;;;;2073196;28;20469;-71
2022/08/06 02:01:53;;;;;;;2.50;1.27;;;14.70;99.90;;;;;;2076255;28;20393;-71
2022/08/06 02:02:58;;;;;;;2.53;1.48;;;14.70;99.90;;;;;;2073377;28;20025;-71
2022/08/06 02:04:00;;;;;;;3.40;1.45;;;14.70;99.90;;;;;;2075813;28;20030;-71
2022/08/06 02:05:02;;;;;;;2.40;1.50;;;14.70;99.90;;;;;;2078516;28;20035;-71
2022/08/06 02:06:04;;;;;;;1.52;1.15;;;14.70;99.90;;;;;;2072188;28;20156;-71
2022/08/06 02:07:09;;;;;;;3.13;1.80;;;14.70;99.90;;;;;;2073690;28;20549;-71
2022/08/06 02:08:13;;;;;;;2.45;1.40;;;14.70;99.90;;;;;;2071951;28;20030;-71
2022/08/06 02:09:17;;;;;;;1.65;1.52;;;14.60;99.90;;;;;;2072806;28;20026;-71
2022/08/06 02:10:22;;;;;;;2.60;1.45;;;14.60;99.90;;;;;;2074223;28;20358;-71
2022/08/06 02:11:23;;;;;;;2.65;1.77;;;14.60;99.90;;;;;;2075547;28;20374;-71
2022/08/06 02:12:25;;;;;;;3.42;1.55;;;14.60;99.90;;;;;;2075136;28;20114;-71
2022/08/06 02:13:28;;;;;;;3.30;1.50;;;14.60;99.90;;;;;;2072199;28;20026;-71
2022/08/06 02:14:32;;;;;;;1.98;1.60;;;14.60;99.90;;;;;;2072391;28;20381;-71
2022/08/06 02:15:34;;;;;;;3.75;1.90;;;14.60;99.90;;;;;;2072496;28;20030;-71
2022/08/06 02:16:37;;;;;;;2.92;1.65;;;14.50;99.90;;;;;;2070970;28;20374;-71
2022/08/06 02:17:47;;;;;;;2.25;1.45;;;14.50;99.90;;;;;;2074099;28;20021;-71
2022/08/06 02:18:50;;;;;;;1.77;1.67;;;14.50;99.90;;;;;;2073803;28;20080;-71
2022/08/06 02:19:54;;;;;;;2.05;1.50;;;14.50;99.90;;;;;;2069226;28;20156;-71
2022/08/06 02:20:57;;;;;;;3.33;1.50;;;14.40;99.90;;;;;;2071649;28;20080;-71
2022/08/06 02:22:00;;;;;;;1.77;1.38;;;14.40;99.90;;;;;;2075885;28;20030;-71
2022/08/06 02:23:03;;;;;;;5.97;1.83;;;14.40;99.90;;;;;;2072935;28;20109;-71
2022/08/06 02:24:06;;;;;;;1.30;1.20;;;14.40;99.90;;;;;;2071874;28;20478;-71
2022/08/06 02:25:11;;;;;;;2.50;1.50;;;14.40;99.90;;;;;;2071421;28;20033;-71
2022/08/06 02:26:14;;;;;;;3.58;1.60;;;14.40;99.90;;;;;;2074058;28;20553;-71
2022/08/06 02:27:17;;;;;;;2.60;1.60;;;14.40;99.90;;;;;;2075145;28;20113;-71
2022/08/06 02:28:21;;;;;;;2.28;1.60;;;14.30;99.90;;;;;;2073914;28;20405;-71
2022/08/06 02:29:23;;;;;;;2.47;1.63;;;14.30;99.90;;;;;;2073590;28;20025;-71
2022/08/06 02:30:25;;;;;;;2.58;1.23;;;14.30;99.90;;;;;;2072722;28;20402;-71
2022/08/06 02:31:25;;;;;;;1.58;1.45;;;14.30;99.90;;;;;;2069652;28;20405;-71
2022/08/06 02:32:27;;;;;;;3.17;1.67;;;14.30;99.90;;;;;;2072642;28;20032;-71
2022/08/06 02:33:28;;;;;;;2.80;1.63;;;14.30;99.90;;;;;;2074754;28;20524;-71
2022/08/06 02:34:29;;;;;;;2.88;1.67;;;14.30;99.90;;;;;;2073393;28;20018;-71
2022/08/06 02:35:32;;;;;;;1.70;1.60;;;14.30;99.90;;;;;;2075585;28;20128;-71
2022/08/06 02:36:38;;;;;;;3.97;1.90;;;14.30;99.90;;;;;;2073767;28;20033;-71
2022/08/06 02:37:50;;;;;;;4.65;1.58;;;14.30;99.90;;;;;;2075523;28;20014;-71
2022/08/06 02:39:18;;;;;;;2.88;1.63;;;14.20;99.90;;;;;;2077568;28;20017;-71
2022/08/06 02:40:27;;;;;;;2.90;1.52;;;14.20;99.90;;;;;;2073513;28;20057;-71
2022/08/06 02:41:38;;;;;;;3.35;1.58;;;14.20;99.90;;;;;;2072001;28;20112;-71
2022/08/06 02:42:56;;;;;;;2.67;1.70;;;14.20;99.90;;;;;;2072645;28;20473;-71
2022/08/06 02:44:19;;;;;;;2.03;1.48;;;14.20;99.90;;;;;;2075444;28;20036;-70
2022/08/06 02:45:30;;;;;;;2.58;1.55;;;14.10;99.90;;;;;;2074474;28;20478;-71
2022/08/06 02:47:06;;;;;;;1.90;1.40;;;14.10;99.90;;;;;;2075013;28;20030;-71
2022/08/06 02:48:06;;;;;;;3.10;1.70;;;14.10;99.90;;;;;;2047491;28;20031;-71
2022/08/06 02:49:16;;;;;;;3.85;1.73;;;14.00;99.90;;;;;;2047661;28;20039;-71
2022/08/06 02:50:24;;;;;;;4.53;1.95;;;14.10;99.90;;;;;;2056164;28;20094;-71
2022/08/06 02:51:38;;;;;;;2.67;1.20;;;14.00;99.90;;;;;;2074326;28;20026;-71
2022/08/06 02:52:42;;;;;;;2.58;1.45;;;14.00;99.90;;;;;;2072004;28;20017;-71
2022/08/06 02:53:54;;;;;;;1.92;1.40;;;14.00;99.90;;;;;;2074257;28;20014;-71
2022/08/06 02:55:01;;;;;;;3.13;1.48;;;14.00;99.90;;;;;;2069949;28;20022;-71
2022/08/06 02:56:08;;;;;;;3.88;1.80;;;14.00;99.90;;;;;;2074217;28;20080;-71
2022/08/06 02:57:17;;;;;;;3.85;1.50;;;14.00;99.90;;;;;;2073212;28;20022;-71
2022/08/06 02:58:29;;;;;;;2.00;1.75;;;14.00;99.90;;;;;;2074492;28;20072;-71
2022/08/06 02:59:35;;;;;;;2.92;1.85;;;14.00;99.90;;;;;;2074278;28;20018;-71
2022/08/06 03:00:40;;;;;;;3.65;1.67;;;13.90;99.90;;;;;;2074344;28;20160;-71
2022/08/06 03:01:52;;;;;;;2.13;1.60;;;13.90;99.90;;;;;;2073204;28;20501;-71
2022/08/06 03:02:56;;;;;;;2.70;1.55;;;13.90;99.90;;;;;;2075957;28;20030;-71
2022/08/06 03:03:59;;;;;;;2.10;1.70;;;13.90;99.90;;;;;;2071922;28;20052;-71
2022/08/06 03:05:02;;;;;;;4.75;2.05;;;13.90;99.90;;;;;;2074685;28;20033;-71
2022/08/06 03:06:05;;;;;;;2.15;1.60;;;13.80;99.90;;;;;;2071880;28;20036;-71
2022/08/06 03:07:08;;;;;;;3.03;1.60;;;13.90;99.90;;;;;;2074345;28;20026;-71
2022/08/06 03:08:14;;;;;;;2.13;1.63;;;13.80;99.90;;;;;;2073686;28;20467;-71
2022/08/06 03:09:16;;;;;;;3.30;1.70;;;13.90;99.90;;;;;;2073247;28;20425;-71
2022/08/06 03:10:19;;;;;;;3.92;1.70;;;13.90;99.90;;;;;;2061710;28;20084;-71
2022/08/06 03:11:22;;;;;;;1.58;1.45;;;13.80;99.90;;;;;;2069363;28;20091;-71
2022/08/06 03:12:24;;;;;;;1.92;1.52;;;13.80;99.90;;;;;;2072746;28;20084;-71
2022/08/06 03:13:25;;;;;;;2.05;1.40;;;13.80;99.90;;;;;;2075064;28;20105;-71
2022/08/06 03:14:27;;;;;;;2.90;1.58;;;13.80;99.90;;;;;;2074080;28;20385;-71
2022/08/06 03:15:29;;;;;;;3.78;1.55;;;13.80;99.90;;;;;;2073901;28;20076;-71
2022/08/06 03:16:33;;;;;;;3.05;1.45;;;13.80;99.90;;;;;;2076059;28;20067;-71
2022/08/06 03:17:36;;;;;;;3.50;1.88;;;13.80;99.90;;;;;;2076258;28;20454;-71
2022/08/06 03:18:38;;;;;;;1.48;1.38;;;13.80;99.90;;;;;;2074755;28;20029;-71
2022/08/06 03:19:40;;;;;;;3.47;1.75;;;13.80;99.90;;;;;;2075421;28;20032;-71
2022/08/06 03:20:42;;;;;;;3.83;1.70;;;13.80;99.90;;;;;;2075595;28;20018;-71
2022/08/06 03:21:44;;;;;;;2.17;1.42;;;13.70;99.90;;;;;;2075252;28;20075;-71
2022/08/06 03:22:49;;;;;;;4.28;1.38;;;13.70;99.90;;;;;;2076224;28;20063;-72
2022/08/06 03:23:51;;;;;;;3.47;1.60;;;13.70;99.90;;;;;;2073834;28;20488;-71
2022/08/06 03:24:53;;;;;;;2.97;1.90;;;13.70;99.90;;;;;;2076698;28;20366;-72
2022/08/06 03:25:55;;;;;;;3.15;1.73;;;13.70;99.90;;;;;;2078024;28;20033;-72
2022/08/06 03:26:58;;;;;;;4.20;2.08;;;13.70;99.90;;;;;;2074084;28;20077;-71
2022/08/06 03:27:59;;;;;;;2.28;1.65;;;13.70;99.90;;;;;;2072226;28;20785;-71
2022/08/06 03:29:01;;;;;;;3.08;1.67;;;13.70;99.90;;;;;;2073417;28;20172;-71
2022/08/06 03:30:02;;;;;;;2.83;1.30;;;13.70;99.90;;;;;;2074822;28;20038;-72
2022/08/06 03:31:03;;;;;;;2.30;1.42;;;13.70;99.90;;;;;;2077036;28;20396;-71
2022/08/06 03:32:06;;;;;;;1.50;1.40;;;13.60;99.90;;;;;;2074625;28;20385;-71
2022/08/06 03:33:16;;;;;;;4.05;1.45;;;13.70;99.90;;;;;;2073773;28;20417;-71
2022/08/06 03:34:17;;;;;;;3.33;1.90;;;13.60;99.90;;;;;;2076443;28;20025;-71
2022/08/06 03:35:19;;;;;;;3.60;1.73;;;13.60;99.90;;;;;;2077690;28;20040;-71
2022/08/06 03:36:21;;;;;;;1.67;1.52;;;13.60;99.90;;;;;;2073539;28;20014;-71
2022/08/06 03:37:22;;;;;;;1.85;1.65;;;13.60;99.90;;;;;;2076365;28;20114;-71
2022/08/06 03:38:25;;;;;;;2.60;1.52;;;13.60;99.90;;;;;;2073085;28;20501;-71
2022/08/06 03:39:28;;;;;;;2.42;1.50;;;13.60;99.90;;;;;;2069717;28;20029;-71
2022/08/06 03:40:31;;;;;;;2.17;1.70;;;13.60;99.90;;;;;;2075043;28;20029;-71
2022/08/06 03:41:36;;;;;;;1.60;1.40;;;13.60;99.90;;;;;;2075707;28;20026;-71
2022/08/06 03:42:38;;;;;;;2.30;1.80;;;13.60;99.90;;;;;;2071927;28;20036;-71
2022/08/06 03:43:39;;;;;;;3.78;1.95;;;13.60;99.90;;;;;;2073607;28;20034;-71
2022/08/06 03:44:42;;;;;;;4.07;1.83;;;13.60;99.90;;;;;;2073001;28;20485;-71
2022/08/06 03:45:56;;;;;;;2.72;1.63;;;13.60;99.90;;;;;;2073548;28;20022;-71
2022/08/06 03:47:06;;;;;;;2.67;1.40;;;13.50;99.90;;;;;;2075153;28;20029;-71
2022/08/06 03:48:12;;;;;;;3.47;1.50;;;13.50;99.90;;;;;;2073998;28;20026;-71
2022/08/06 03:49:21;;;;;;;2.80;1.60;;;13.50;99.90;;;;;;2075417;28;20034;-71
2022/08/06 03:50:28;;;;;;;3.92;2.08;;;13.50;99.90;;;;;;2073883;28;20425;-71
2022/08/06 03:51:31;;;;;;;2.60;1.80;;;13.50;99.90;;;;;;2072927;28;20053;-71
2022/08/06 03:52:38;;;;;;;3.03;1.48;;;13.50;99.90;;;;;;2074509;28;20049;-71
2022/08/06 03:53:41;;;;;;;2.40;1.67;;;13.50;99.90;;;;;;2073804;28;20477;-71
2022/08/06 03:54:47;;;;;;;3.03;2.00;;;13.50;99.90;;;;;;2074516;28;20029;-71
2022/08/06 03:55:50;;;;;;;4.53;2.15;;;13.50;99.90;;;;;;2070923;28;20059;-71
2022/08/06 03:56:54;;;;;;;3.97;2.30;;;13.50;99.90;;;;;;2079016;28;20014;-71
2022/08/06 03:57:59;;;;;;;8.07;2.17;;;13.40;99.90;;;;;;2073617;28;20034;-71
2022/08/06 03:59:04;;;;;;;2.13;1.40;;;13.40;99.90;;;;;;2075313;28;20025;-71
2022/08/06 04:00:07;;;;;;;6.20;2.10;;;13.40;99.90;;;;;;2073557;28;20029;-71
2022/08/06 04:01:12;;;;;;;3.33;1.80;;;13.40;99.90;;;;;;2074743;28;20516;-71
2022/08/06 04:02:15;;;;;;;2.42;2.00;;;13.40;99.90;;;;;;2073656;28;20552;-71
2022/08/06 04:03:18;;;;;;;4.00;2.00;;;13.40;99.90;;;;;;2073513;28;20109;-71
2022/08/06 04:04:20;;;;;;;2.80;1.70;;;13.40;99.90;;;;;;2074299;28;20021;-71
2022/08/06 04:05:24;;;;;;;5.00;1.70;;;13.40;99.90;;;;;;2075517;28;20100;-71
2022/08/06 04:06:27;;;;;;;4.40;2.08;;;13.40;99.90;;;;;;2075548;28;20101;-71
2022/08/06 04:07:29;;;;;;;3.05;2.03;;;13.40;99.90;;;;;;2075331;28;20045;-71
2022/08/06 04:08:32;;;;;;;1.85;1.75;;;13.40;99.90;;;;;;2074544;28;20018;-71
2022/08/06 04:09:34;;;;;;;2.50;1.67;;;13.40;99.90;;;;;;2074464;28;20026;-71
2022/08/06 04:10:38;;;;;;;5.25;2.17;;;13.40;99.90;;;;;;2072441;28;20018;-72
2022/08/06 04:11:39;;;;;;;2.63;1.90;;;13.40;99.90;;;;;;2073468;28;20385;-71
2022/08/06 04:12:42;;;;;;;3.60;1.98;;;13.40;99.90;;;;;;2076958;28;20032;-71
2022/08/06 04:13:44;;;;;;;4.32;2.13;;;13.30;99.90;;;;;;2076400;28;20373;-71
2022/08/06 04:14:44;;;;;;;3.70;1.92;;;13.30;99.90;;;;;;2078452;28;20022;-71
2022/08/06 04:15:45;;;;;;;2.80;2.00;;;13.40;99.90;;;;;;2073242;28;20122;-71
2022/08/06 04:16:48;;;;;;;3.92;2.30;;;13.40;99.90;;;;;;2073215;28;20064;-71
2022/08/06 04:17:51;;;;;;;4.93;2.28;;;13.30;99.90;;;;;;2074084;28;20381;-71
2022/08/06 04:18:55;;;;;;;2.47;2.10;;;13.40;99.90;;;;;;2072207;28;20026;-71
2022/08/06 04:19:56;;;;;;;2.72;2.03;;;13.40;99.90;;;;;;2075291;28;20025;-71
2022/08/06 04:21:01;;;;;;;2.85;2.25;;;13.30;99.90;;;;;;2072752;28;20037;-71
2022/08/06 04:22:01;;;;;;;3.72;2.53;;;13.30;99.90;;;;;;2074384;28;20116;-71
2022/08/06 04:23:02;;;;;;;4.32;1.92;;;13.30;99.90;;;;;;2075823;28;20026;-71
2022/08/06 04:24:03;;;;;;;2.83;2.13;;;13.30;99.90;;;;;;2076103;28;20033;-71
2022/08/06 04:25:04;;;;;;;5.68;2.25;;;13.40;99.90;;;;;;2073994;28;20026;-71
2022/08/06 04:26:07;;;;;;;3.45;2.15;;;13.30;99.90;;;;;;2072623;28;20572;-71
2022/08/06 04:27:10;;;;;;;2.30;2.10;;;13.30;99.90;;;;;;2074929;28;20470;-71
2022/08/06 04:28:13;;;;;;;2.67;1.75;;;13.30;99.90;;;;;;2073601;28;20025;-71
2022/08/06 04:29:17;;;;;;;3.20;1.80;;;13.30;99.90;;;;;;2074615;28;20025;-71
2022/08/06 04:30:18;;;;;;;3.05;1.98;;;13.40;99.90;;;;;;2074314;28;20020;-72
2022/08/06 04:31:20;;;;;;;3.33;2.10;;;13.30;99.90;;;;;;2074147;28;20021;-71
2022/08/06 04:32:23;;;;;;;7.20;2.25;;;13.30;99.90;;;;;;2077033;28;20029;-71
2022/08/06 04:33:27;;;;;;;1.98;1.85;;;13.30;99.90;;;;;;2073821;28;20022;-71
2022/08/06 04:34:29;;;;;;;3.10;1.80;;;13.30;99.90;;;;;;2073874;28;20097;-71
2022/08/06 04:35:30;;;;;;;6.60;2.20;;;13.30;99.90;;;;;;2073094;28;20457;-71
2022/08/06 04:36:32;;;;;;;3.15;2.00;;;13.40;99.90;;;;;;2073773;28;20026;-71
2022/08/06 04:37:34;;;;;;;6.03;2.05;;;13.30;99.90;;;;;;2073917;28;20034;-71
2022/08/06 04:38:34;;;;;;;3.67;2.20;;;13.40;99.90;;;;;;2080129;28;20109;-72
2022/08/06 04:39:35;;;;;;;2.97;2.20;;;13.40;99.90;;;;;;2077680;28;20029;-72
2022/08/06 04:40:37;;;;;;;4.18;1.80;;;13.40;99.90;;;;;;2075634;28;20209;-72
2022/08/06 04:41:38;;;;;;;4.95;2.33;;;13.40;99.90;;;;;;2073780;28;20087;-71
2022/08/06 04:42:39;;;;;;;4.93;2.90;;;13.40;99.90;;;;;;2074071;28;20108;-71
2022/08/06 04:43:40;;;;;;;5.95;2.35;;;13.40;99.90;;;;;;2073421;28;20025;-71
2022/08/06 04:44:41;;;;;;;2.85;2.10;;;13.40;99.90;;;;;;2072553;28;20041;-71
2022/08/06 04:45:43;;;;;;;3.65;2.10;;;13.40;99.90;;;;;;2073870;28;20025;-71
2022/08/06 04:46:48;;;;;;;3.88;1.85;;;13.40;99.90;;;;;;2073141;28;20386;-71
2022/08/06 04:47:49;;;;;;;2.25;2.00;;;13.40;99.90;;;;;;2072944;28;20405;-71
2022/08/06 04:48:50;;;;;;;5.15;2.30;;;13.40;99.90;;;;;;2076478;28;20026;-71
2022/08/06 04:49:50;;;;;;;6.68;2.30;;;13.40;99.90;;;;;;2075366;28;20060;-71
2022/08/06 04:50:51;;;;;;;2.92;2.25;;;13.40;99.90;;;;;;2075436;28;20049;-71
2022/08/06 04:51:52;;;;;;;3.15;2.28;;;13.40;99.90;;;;;;2074278;28;20022;-71
2022/08/06 04:52:52;;;;;;;4.03;2.55;;;13.40;99.90;;;;;;2074199;28;20018;-71
2022/08/06 04:53:53;;;;;;;3.42;2.40;;;13.50;99.90;;;;;;2073326;28;20057;-71
2022/08/06 04:54:53;;;;;;;3.83;2.20;;;13.50;99.90;;;;;;2071786;28;20029;-71
2022/08/06 04:55:54;;;;;;;5.20;2.30;;;13.50;99.90;;;;;;2074472;28;20735;-71
2022/08/06 04:56:54;;;;;;;3.03;2.00;;;13.50;99.90;;;;;;2075707;28;20036;-71
2022/08/06 04:57:55;;;;;;;2.47;2.20;;;13.50;99.90;;;;;;2075252;28;20072;-72
2022/08/06 04:58:55;;;;;;;2.97;2.53;;;13.50;99.90;;;;;;2073282;28;20101;-71
2022/08/06 04:59:56;;;;;;;3.47;2.20;;;13.50;99.90;;;;;;2075022;28;20026;-71
2022/08/06 05:00:56;;;;;;;3.15;2.50;;;13.60;99.90;;;;;;2074325;28;20375;-71
2022/08/06 05:01:57;;;;;;;4.82;2.97;;;13.60;99.90;;;;;;2072680;28;20033;-71
2022/08/06 05:02:58;;;;;;;3.50;2.53;;;13.60;99.90;;;;;;2074050;28;20063;-71
2022/08/06 05:03:58;;;;;;;3.47;2.38;;;13.60;99.90;;;;;;2075462;28;20026;-71
2022/08/06 05:04:59;;;;;;;4.50;2.40;;;13.70;99.90;;;;;;2078053;28;20029;-71
2022/08/06 05:06:13;;;;;;;3.33;2.45;;;13.70;99.90;;;;;;2072629;28;20521;-71
2022/08/06 05:07:24;;;;;;;5.35;2.60;;;13.80;99.90;;;;;;2073323;28;20095;-71
2022/08/06 05:08:28;;;;;;;4.53;2.30;;;13.80;99.90;;;;;;2072559;28;20033;-71
2022/08/06 05:09:29;;;;;;;5.93;2.45;;;13.90;99.90;;;;;;2073536;28;20022;-71
2022/08/06 05:10:46;;;;;;;3.25;2.75;;;13.90;99.90;;;;;;2072637;28;20093;-71
2022/08/06 05:11:54;;;;;;;3.13;2.03;;;14.00;99.90;;;;;;2073481;28;20481;-71
2022/08/06 05:12:56;;;;;;;5.35;2.75;;;14.10;99.90;;;;;;2078647;28;20033;-71
2022/08/06 05:14:04;;;;;;;7.43;2.30;;;14.10;99.90;;;;;;2073239;28;20474;-71
2022/08/06 05:15:16;;;;;;;2.38;1.83;;;14.20;99.90;;;;;;2072825;28;20034;-71
2022/08/06 05:16:19;;;;;;;5.47;2.65;;;14.30;99.90;;;;;;2073992;28;20381;-72
2022/08/06 05:17:23;;;;;;;4.78;2.45;;;14.40;99.90;;;;;;2073454;28;20040;-72
2022/08/06 05:18:29;;;;;;;3.90;2.55;;;14.50;99.90;;;;;;2074265;28;20026;-72
2022/08/06 05:19:38;;;;;;;5.55;2.60;;;14.60;99.90;;;;;;2075426;28;20120;-72
2022/08/06 05:20:41;;;;;;;4.82;2.53;;;14.70;99.90;;;;;;2073695;28;20492;-72
2022/08/06 05:21:42;;;;;;;4.05;2.38;;;14.80;99.90;;;;;;2075666;28;20473;-72
2022/08/06 05:22:46;;;;;;;3.50;2.33;;;14.90;99.90;;;;;;2076300;28;20018;-72
2022/08/06 05:23:49;;;;;;;3.75;2.72;;;15.00;99.90;;;;;;2073938;28;20052;-72
2022/08/06 05:24:51;;;;;;;4.10;2.50;;;15.10;99.90;;;;;;2067274;28;20064;-72
2022/08/06 05:25:51;;;;;;;4.85;2.88;;;15.20;99.90;;;;;;2068584;28;20509;-72
2022/08/06 05:26:52;;;;;;;4.32;2.00;;;15.30;99.90;;;;;;2072798;28;20026;-72
2022/08/06 05:27:54;;;;;;;3.65;2.17;;;15.40;99.90;;;;;;2076269;28;20025;-72
2022/08/06 05:28:55;;;;;;;5.25;2.90;;;15.50;99.90;;;;;;2075921;28;20469;-72
2022/08/06 05:29:56;;;;;;;5.75;2.80;;;15.70;99.90;;;;;;2074640;28;20397;-72
2022/08/06 05:30:56;;;;;;;5.13;2.65;;;15.80;99.90;;;;;;2075880;28;20104;-72
2022/08/06 05:31:59;;;;;;;5.43;2.17;;;15.80;99.90;;;;;;2072925;28;20105;-72
2022/08/06 05:32:59;;;;;;;4.57;2.22;;;15.90;99.90;;;;;;2076157;28;20057;-72